createdAt,value
2018-03-16T00:00:28.422Z,11.15
2018-03-16T00:02:59.896Z,11.23
2018-03-16T00:05:31.254Z,11.23
2018-03-16T00:08:02.563Z,11.36
2018-03-16T00:10:34.222Z,11.41
2018-03-16T00:13:05.603Z,11.37
2018-03-16T00:15:37.023Z,11.37
2018-03-16T00:18:08.983Z,11.21
2018-03-16T00:20:46.004Z,11.25
2018-03-16T00:23:17.905Z,11.15
2018-03-16T00:25:49.189Z,11.11
2018-03-16T00:28:26.961Z,11.09
2018-03-16T00:30:58.292Z,11.14
2018-03-16T00:33:30.073Z,11.16
2018-03-16T00:36:01.688Z,10.89
2018-03-16T00:38:33.461Z,10.99
2018-03-16T00:41:04.782Z,10.87
2018-03-16T00:43:35.976Z,10.85
2018-03-16T00:46:07.508Z,10.83
2018-03-16T00:48:38.775Z,10.96
2018-03-16T00:51:10.335Z,10.97
2018-03-16T00:53:46.680Z,10.93
2018-03-16T00:56:18.038Z,11.00
2018-03-16T00:58:49.518Z,11.10
2018-03-16T01:01:22.502Z,11.03
2018-03-16T01:03:55.264Z,11.00
2018-03-16T01:06:26.869Z,10.94
2018-03-16T01:08:59.028Z,10.88
2018-03-16T01:11:31.940Z,10.69
2018-03-16T01:14:03.365Z,10.80
2018-03-16T01:16:35.206Z,10.76
2018-03-16T01:19:06.573Z,10.79
2018-03-16T01:21:38.185Z,10.92
2018-03-16T01:24:10.022Z,10.93
2018-03-16T01:26:41.554Z,10.87
2018-03-16T01:29:13.027Z,11.02
2018-03-16T01:31:45.682Z,11.01
2018-03-16T01:34:18.045Z,10.95
2018-03-16T01:36:49.605Z,11.01
2018-03-16T01:39:23.137Z,10.91
2018-03-16T01:41:54.555Z,10.88
2018-03-16T01:44:26.538Z,10.79
2018-03-16T01:46:59.343Z,10.93
2018-03-16T01:49:30.713Z,11.17
2018-03-16T01:52:02.197Z,11.05
2018-03-16T01:54:33.843Z,11.06
2018-03-16T01:57:05.894Z,10.90
2018-03-16T01:59:38.692Z,10.93
2018-03-16T02:02:11.084Z,10.94
2018-03-16T02:04:42.635Z,10.82
2018-03-16T02:07:14.036Z,10.91
2018-03-16T02:09:45.978Z,10.70
2018-03-16T02:12:17.902Z,10.74
2018-03-16T02:14:49.406Z,10.63
2018-03-16T02:17:21.077Z,10.65
2018-03-16T02:19:58.515Z,10.70
2018-03-16T02:22:29.854Z,10.75
2018-03-16T02:25:01.476Z,10.62
2018-03-16T02:27:32.970Z,10.62
2018-03-16T02:30:06.384Z,10.59
2018-03-16T02:32:38.265Z,10.58
2018-03-16T02:35:09.870Z,10.63
2018-03-16T02:37:41.117Z,10.67
2018-03-16T02:40:13.348Z,10.57
2018-03-16T02:42:44.815Z,10.53
2018-03-16T02:45:18.243Z,10.67
2018-03-16T02:47:49.516Z,10.62
2018-03-16T02:50:22.788Z,10.68
2018-03-16T02:52:53.874Z,10.76
2018-03-16T02:55:26.232Z,10.75
2018-03-16T02:57:57.350Z,10.69
2018-03-16T03:00:29.656Z,10.79
2018-03-16T03:03:00.765Z,10.74
2018-03-16T03:05:32.028Z,10.79
2018-03-16T03:08:03.270Z,10.87
2018-03-16T03:10:34.308Z,10.97
2018-03-16T03:13:04.908Z,11.00
2018-03-16T03:15:35.842Z,10.94
2018-03-16T03:18:06.846Z,10.90
2018-03-16T03:20:37.881Z,10.80
2018-03-16T03:23:08.608Z,10.82
2018-03-16T03:25:39.892Z,10.86
2018-03-16T03:28:10.772Z,10.96
2018-03-16T03:30:42.447Z,10.77
2018-03-16T03:33:14.486Z,10.86
2018-03-16T03:35:46.314Z,10.95
2018-03-16T03:38:18.054Z,10.88
2018-03-16T03:40:48.978Z,10.73
2018-03-16T03:43:21.421Z,10.78
2018-03-16T03:45:52.963Z,10.75
2018-03-16T03:48:26.366Z,10.82
2018-03-16T03:50:57.451Z,10.90
2018-03-16T03:53:28.677Z,10.82
2018-03-16T03:55:59.620Z,10.81
2018-03-16T03:58:33.728Z,10.68
2018-03-16T04:01:05.703Z,10.78
2018-03-16T04:03:37.192Z,10.64
2018-03-16T04:06:08.421Z,10.64
2018-03-16T04:08:41.518Z,10.86
2018-03-16T04:11:13.147Z,10.72
2018-03-16T04:13:44.486Z,10.57
2018-03-16T04:16:15.725Z,10.68
2018-03-16T04:18:46.980Z,10.73
2018-03-16T04:21:18.515Z,10.81
2018-03-16T04:23:49.686Z,10.92
2018-03-16T04:26:20.301Z,10.97
2018-03-16T04:28:51.413Z,11.11
2018-03-16T04:31:22.234Z,11.17
2018-03-16T04:33:52.729Z,11.10
2018-03-16T04:36:23.761Z,11.11
2018-03-16T04:38:54.235Z,11.00
2018-03-16T04:41:25.935Z,10.98
2018-03-16T04:43:58.622Z,11.13
2018-03-16T04:46:29.834Z,10.99
2018-03-16T04:49:00.639Z,10.99
2018-03-16T04:51:31.931Z,11.06
2018-03-16T04:54:02.872Z,11.01
2018-03-16T04:56:48.553Z,10.94
2018-03-16T04:59:19.487Z,11.04
2018-03-16T05:01:50.975Z,10.94
2018-03-16T05:04:22.495Z,10.94
2018-03-16T05:06:53.843Z,11.13
2018-03-16T05:09:30.872Z,11.25
2018-03-16T05:12:02.106Z,11.20
2018-03-16T05:14:33.355Z,11.15
2018-03-16T05:17:06.107Z,11.02
2018-03-16T05:19:37.999Z,10.98
2018-03-16T05:22:08.916Z,11.06
2018-03-16T05:24:41.475Z,11.20
2018-03-16T05:27:13.068Z,11.37
2018-03-16T05:29:44.506Z,11.32
2018-03-16T05:32:16.020Z,11.34
2018-03-16T05:34:47.350Z,11.25
2018-03-16T05:37:19.256Z,10.92
2018-03-16T05:39:50.337Z,11.19
2018-03-16T05:44:50.883Z,11.31
2018-03-16T05:47:22.652Z,11.31
2018-03-16T05:49:54.298Z,11.37
2018-03-16T05:52:25.353Z,11.50
2018-03-16T05:54:56.661Z,11.38
2018-03-16T05:57:29.031Z,11.31
2018-03-16T06:00:00.390Z,11.34
2018-03-16T06:02:35.516Z,11.34
2018-03-16T06:05:09.743Z,11.41
2018-03-16T06:07:41.171Z,11.54
2018-03-16T06:10:12.430Z,11.44
2018-03-16T06:12:45.139Z,11.65
2018-03-16T06:15:18.058Z,11.86
2018-03-16T06:17:49.988Z,11.98
2018-03-16T06:20:21.756Z,11.78
2018-03-16T06:22:53.224Z,11.77
2018-03-16T06:25:26.430Z,11.71
2018-03-16T06:27:57.764Z,11.79
2018-03-16T06:30:29.964Z,11.70
2018-03-16T06:33:01.392Z,11.64
2018-03-16T06:35:33.680Z,11.66
2018-03-16T06:38:05.091Z,11.84
2018-03-16T06:40:36.417Z,11.63
2018-03-16T06:43:08.587Z,11.63
2018-03-16T06:45:45.900Z,11.82
2018-03-16T06:48:17.234Z,11.67
2018-03-16T06:50:49.269Z,11.60
2018-03-16T06:53:21.730Z,11.61
2018-03-16T06:56:03.926Z,11.55
2018-03-16T06:58:39.569Z,11.59
2018-03-16T07:01:11.976Z,11.49
2018-03-16T07:03:43.114Z,11.50
2018-03-16T07:06:15.008Z,11.66
2018-03-16T07:08:46.287Z,11.86
2018-03-16T07:11:26.996Z,11.91
2018-03-16T07:14:00.679Z,12.07
2018-03-16T07:16:33.155Z,12.06
2018-03-16T07:19:04.600Z,12.16
2018-03-16T07:21:35.911Z,12.28
2018-03-16T07:24:07.397Z,12.19
2018-03-16T07:26:40.599Z,12.38
2018-03-16T07:29:12.130Z,12.54
2018-03-16T07:31:50.426Z,12.43
2018-03-16T07:34:22.407Z,12.59
2018-03-16T07:36:54.915Z,12.64
2018-03-16T07:39:26.245Z,12.57
2018-03-16T07:41:58.864Z,12.61
2018-03-16T07:44:31.062Z,12.67
2018-03-16T07:47:03.036Z,12.66
2018-03-16T07:49:35.347Z,12.75
2018-03-16T07:52:09.016Z,12.85
2018-03-16T07:54:40.970Z,12.97
2018-03-16T07:57:12.225Z,13.04
2018-03-16T07:59:43.913Z,12.81
2018-03-16T08:02:20.074Z,12.83
2018-03-16T08:04:51.783Z,12.66
2018-03-16T08:07:27.078Z,12.63
2018-03-16T08:09:58.487Z,12.57
2018-03-16T08:12:31.829Z,12.53
2018-03-16T08:15:06.400Z,12.72
2018-03-16T08:17:38.749Z,12.81
2018-03-16T08:22:54.522Z,12.99
2018-03-16T08:25:31.043Z,13.06
2018-03-16T08:28:05.359Z,13.40
2018-03-16T08:30:37.992Z,13.30
2018-03-16T08:33:10.153Z,13.62
2018-03-16T08:35:41.942Z,13.73
2018-03-16T08:38:12.984Z,13.79
2018-03-16T08:40:45.081Z,13.97
2018-03-16T08:43:16.399Z,13.87
2018-03-16T08:45:49.289Z,13.65
2018-03-16T08:48:20.845Z,13.81
2018-03-16T08:50:53.070Z,14.04
2018-03-16T08:53:26.833Z,14.23
2018-03-16T08:55:57.875Z,14.18
2018-03-16T08:58:36.085Z,14.10
2018-03-16T09:01:09.906Z,14.00
2018-03-16T09:03:41.360Z,14.03
2018-03-16T09:06:16.645Z,14.28
2018-03-16T09:08:48.024Z,14.39
2018-03-16T09:11:19.452Z,14.38
2018-03-16T09:13:50.713Z,14.33
2018-03-16T09:16:22.825Z,14.35
2018-03-16T09:18:56.735Z,14.05
2018-03-16T09:21:27.924Z,13.86
2018-03-16T09:24:01.178Z,14.11
2018-03-16T09:26:33.467Z,14.28
2018-03-16T09:29:04.987Z,14.12
2018-03-16T09:31:36.723Z,14.27
2018-03-16T09:34:10.083Z,14.38
2018-03-16T09:36:42.643Z,14.46
2018-03-16T09:39:15.639Z,14.51
2018-03-16T09:41:48.847Z,14.47
2018-03-16T09:44:20.317Z,14.34
2018-03-16T09:46:54.673Z,14.44
2018-03-16T09:49:30.824Z,14.34
2018-03-16T09:52:02.746Z,14.48
2018-03-16T09:54:40.421Z,14.50
2018-03-16T09:57:12.051Z,14.52
2018-03-16T09:59:43.058Z,14.58
2018-03-16T10:02:14.316Z,14.36
2018-03-16T10:04:46.110Z,14.11
2018-03-16T10:07:17.712Z,13.83
2018-03-16T10:10:11.386Z,13.99
2018-03-16T10:12:42.600Z,13.65
2018-03-16T10:15:20.047Z,13.47
2018-03-16T10:17:53.070Z,13.34
2018-03-16T10:20:24.014Z,13.25
2018-03-16T10:22:55.030Z,13.04
2018-03-16T10:25:25.871Z,12.88
2018-03-16T10:27:57.521Z,12.94
2018-03-16T10:30:29.074Z,12.87
2018-03-16T10:33:01.344Z,12.92
2018-03-16T10:35:36.970Z,12.90
2018-03-16T10:38:08.835Z,12.98
2018-03-16T10:40:40.967Z,12.95
2018-03-16T10:43:12.917Z,12.91
2018-03-16T10:45:46.658Z,12.84
2018-03-16T10:48:18.161Z,12.93
2018-03-16T10:50:48.953Z,12.92
2018-03-16T10:53:22.182Z,12.87
2018-03-16T10:55:54.413Z,12.92
2018-03-16T10:58:27.185Z,12.70
2018-03-16T11:01:00.551Z,12.63
2018-03-16T11:03:35.679Z,12.71
2018-03-16T11:06:08.119Z,12.76
2018-03-16T11:08:41.390Z,12.70
2018-03-16T11:11:13.037Z,12.47
2018-03-16T11:13:48.092Z,12.27
2018-03-16T11:16:23.640Z,12.24
2018-03-16T11:18:56.433Z,12.00
2018-03-16T11:21:28.509Z,11.82
2018-03-16T11:24:11.875Z,11.70
2018-03-16T11:26:43.938Z,11.49
2018-03-16T11:29:16.356Z,11.36
2018-03-16T11:31:47.845Z,11.22
2018-03-16T11:34:20.903Z,11.14
2018-03-16T11:36:52.395Z,11.06
2018-03-16T11:39:27.732Z,11.03
2018-03-16T11:41:59.780Z,10.95
2018-03-16T11:44:31.358Z,10.95
2018-03-16T11:47:03.407Z,10.94
2018-03-16T11:49:34.924Z,10.97
2018-03-16T11:52:06.246Z,10.95
2018-03-16T11:54:37.494Z,10.85
2018-03-16T11:57:09.079Z,10.76
2018-03-16T11:59:39.886Z,10.63
2018-03-16T12:02:11.527Z,10.58
2018-03-16T12:04:44.031Z,10.53
2018-03-16T12:07:15.350Z,10.51
2018-03-16T12:09:47.533Z,10.61
2018-03-16T12:12:24.877Z,10.62
2018-03-16T12:14:58.797Z,10.57
2018-03-16T12:17:30.851Z,10.56
2018-03-16T12:20:04.432Z,10.55
2018-03-16T12:22:36.655Z,10.61
2018-03-16T12:25:08.429Z,10.65
2018-03-16T12:27:41.392Z,10.62
2018-03-16T12:30:17.774Z,10.51
2018-03-16T12:32:49.774Z,10.57
2018-03-16T12:35:21.422Z,10.53
2018-03-16T12:37:52.527Z,10.44
2018-03-16T12:40:30.045Z,10.30
2018-03-16T12:43:02.150Z,10.14
2018-03-16T12:45:34.348Z,10.01
2018-03-16T12:48:15.491Z,9.90
2018-03-16T12:50:47.900Z,9.86
2018-03-16T12:53:20.633Z,9.88
2018-03-16T12:55:51.886Z,9.90
2018-03-16T12:58:26.613Z,9.84
2018-03-16T13:01:00.225Z,9.89
2018-03-16T13:03:31.382Z,9.59
2018-03-16T13:06:06.388Z,9.84
2018-03-16T13:08:37.703Z,9.77
2018-03-16T13:11:08.791Z,9.72
2018-03-16T13:13:40.436Z,9.70
2018-03-16T13:16:19.802Z,9.75
2018-03-16T13:18:53.224Z,9.98
2018-03-16T13:21:28.490Z,10.03
2018-03-16T13:26:35.429Z,10.04
2018-03-16T13:29:17.078Z,9.97
2018-03-16T13:31:48.904Z,9.92
2018-03-16T13:34:21.558Z,9.81
2018-03-16T13:36:53.760Z,9.72
2018-03-16T13:39:26.836Z,9.66
2018-03-16T13:41:58.531Z,9.58
2018-03-16T13:44:41.341Z,9.51
2018-03-16T13:47:15.202Z,9.67
2018-03-16T13:49:46.859Z,9.73
2018-03-16T13:52:26.399Z,9.70
2018-03-16T13:54:57.810Z,9.74
2018-03-16T13:57:29.699Z,9.69
2018-03-16T14:00:00.675Z,9.63
2018-03-16T14:02:37.602Z,9.63
2018-03-16T14:05:10.335Z,9.53
2018-03-16T14:07:41.705Z,9.62
2018-03-16T14:10:13.684Z,9.64
2018-03-16T14:12:46.648Z,9.60
2018-03-16T14:15:25.097Z,9.53
2018-03-16T14:18:00.056Z,9.49
2018-03-16T14:20:31.165Z,9.49
2018-03-16T14:23:02.826Z,9.52
2018-03-16T14:25:36.187Z,9.57
2018-03-16T14:28:07.113Z,9.66
2018-03-16T14:30:38.672Z,9.59
2018-03-16T14:33:21.261Z,9.42
2018-03-16T14:35:58.403Z,9.40
2018-03-16T14:48:26.125Z,9.23
2018-03-16T14:50:57.673Z,9.23
2018-03-16T14:53:39.920Z,9.14
2018-03-16T14:56:14.736Z,9.03
2018-03-16T14:58:46.440Z,9.03
2018-03-16T15:01:22.250Z,9.09
2018-03-16T15:03:59.014Z,9.07
2018-03-16T15:06:41.089Z,9.06
2018-03-16T15:13:09.989Z,8.70
2018-03-16T15:15:43.305Z,8.63
2018-03-16T15:18:21.548Z,8.56
2018-03-16T15:20:59.368Z,8.55
2018-03-16T15:23:34.662Z,8.40
2018-03-16T15:26:08.790Z,8.27
2018-03-16T15:28:46.387Z,8.19
2018-03-16T15:31:20.046Z,8.23
2018-03-16T15:33:56.324Z,8.23
2018-03-16T15:36:34.471Z,8.16
2018-03-16T15:39:06.631Z,8.21
2018-03-16T15:41:44.110Z,8.24
2018-03-16T15:44:15.684Z,8.22
2018-03-16T15:46:48.928Z,8.07
2018-03-16T15:52:18.736Z,7.80
2018-03-16T15:54:53.107Z,7.80
2018-03-16T15:57:31.320Z,7.79
2018-03-16T16:00:05.884Z,7.85
2018-03-16T16:02:38.643Z,7.63
2018-03-16T16:05:10.622Z,7.54
2018-03-16T16:07:41.775Z,7.54
2018-03-16T16:10:13.820Z,7.59
2018-03-16T16:12:45.394Z,7.60
2018-03-16T16:15:19.110Z,7.52
2018-03-16T16:17:50.304Z,7.39
2018-03-16T16:20:21.878Z,7.33
2018-03-16T16:22:54.615Z,7.32
2018-03-16T16:25:26.858Z,7.38
2018-03-16T16:27:59.985Z,7.21
2018-03-16T16:30:34.357Z,7.14
2018-03-16T16:33:06.093Z,7.16
2018-03-16T16:35:38.335Z,6.93
2018-03-16T16:38:09.505Z,7.11
2018-03-16T16:40:41.307Z,7.09
2018-03-16T16:43:12.218Z,6.97
2018-03-16T16:45:49.889Z,6.85
2018-03-16T16:48:22.716Z,6.79
2018-03-16T16:50:56.507Z,6.80
2018-03-16T16:53:28.482Z,6.79
2018-03-16T16:56:05.803Z,6.85
2018-03-16T16:58:39.630Z,6.74
2018-03-16T17:01:14.443Z,6.72
2018-03-16T17:06:32.795Z,6.87
2018-03-16T17:09:04.215Z,6.86
2018-03-16T17:11:38.211Z,6.80
2018-03-16T17:14:15.326Z,6.60
2018-03-16T17:16:46.881Z,6.40
2018-03-16T17:19:25.004Z,6.43
2018-03-16T17:22:04.690Z,6.46
2018-03-16T17:24:37.784Z,6.46
2018-03-16T17:27:12.104Z,6.61
2018-03-16T17:32:31.063Z,6.69
2018-03-16T17:35:10.124Z,6.55
2018-03-16T17:37:43.003Z,6.59
2018-03-16T17:40:18.048Z,6.44
2018-03-16T17:48:28.668Z,6.41
2018-03-16T17:51:00.816Z,6.37
2018-03-16T17:53:34.397Z,6.47
2018-03-16T17:56:07.734Z,6.26
2018-03-16T17:58:40.948Z,6.06
2018-03-16T18:01:14.505Z,6.09
2018-03-16T18:03:46.131Z,6.09
2018-03-16T18:06:21.413Z,6.17
2018-03-16T18:08:54.322Z,6.11
2018-03-16T18:11:29.723Z,6.12
2018-03-16T18:14:01.255Z,5.99
2018-03-16T18:16:32.809Z,5.97
2018-03-16T18:19:05.712Z,6.07
2018-03-16T18:21:37.046Z,6.05
2018-03-16T18:24:09.059Z,6.12
2018-03-16T18:26:43.032Z,6.15
2018-03-16T18:31:53.405Z,6.23
2018-03-16T18:34:36.020Z,6.30
2018-03-16T18:37:13.624Z,6.33
2018-03-16T18:39:47.482Z,6.35
2018-03-16T18:42:20.391Z,6.33
2018-03-16T18:44:53.969Z,6.23
2018-03-16T18:47:38.777Z,6.10
2018-03-16T18:50:11.667Z,6.00
2018-03-16T18:52:44.637Z,6.00
2018-03-16T18:55:16.441Z,5.75
2018-03-16T18:57:47.810Z,5.79
2018-03-16T19:00:21.127Z,5.58
2018-03-16T19:02:52.169Z,5.45
2018-03-16T19:05:24.145Z,5.39
2018-03-16T19:07:56.973Z,5.32
2018-03-16T19:10:29.228Z,5.35
2018-03-16T19:13:02.781Z,5.33
2018-03-16T19:15:33.887Z,5.44
2018-03-16T19:18:05.803Z,5.44
2018-03-16T19:20:36.986Z,5.64
2018-03-16T19:23:09.707Z,5.78
2018-03-16T19:25:40.479Z,5.92
2018-03-16T19:28:12.446Z,5.90
2018-03-16T19:30:44.720Z,5.90
2018-03-16T19:36:19.740Z,5.68
2018-03-16T19:38:51.767Z,5.52
2018-03-16T19:41:23.017Z,5.57
2018-03-16T19:43:54.296Z,5.55
2018-03-16T19:46:25.956Z,5.46
2018-03-16T19:48:58.442Z,5.41
2018-03-16T19:51:29.855Z,5.42
2018-03-16T19:54:00.819Z,5.50
2018-03-16T19:56:31.533Z,5.53
2018-03-16T19:59:05.913Z,5.64
2018-03-16T20:01:37.618Z,5.68
2018-03-16T20:04:09.652Z,5.70
2018-03-16T20:06:40.502Z,5.39
2018-03-16T20:09:11.760Z,5.61
2018-03-16T20:11:42.695Z,5.58
2018-03-16T20:14:13.888Z,5.57
2018-03-16T20:16:45.461Z,5.49
2018-03-16T20:19:16.613Z,5.61
2018-03-16T20:21:47.576Z,5.58
2018-03-16T20:24:18.683Z,5.49
2018-03-16T20:26:51.163Z,5.46
2018-03-16T20:29:24.572Z,5.38
2018-03-16T20:31:55.870Z,5.25
2018-03-16T20:34:34.102Z,5.03
2018-03-16T20:37:05.599Z,5.02
2018-03-16T20:39:39.031Z,5.15
2018-03-16T20:42:13.357Z,5.11
2018-03-16T20:44:44.753Z,5.13
2018-03-16T20:47:16.345Z,5.20
2018-03-16T20:49:47.838Z,5.08
2018-03-16T20:52:18.845Z,5.12
2018-03-16T20:54:50.265Z,5.15
2018-03-16T20:57:21.824Z,5.14
2018-03-16T21:00:00.622Z,5.18
2018-03-16T21:02:44.721Z,5.07
2018-03-16T21:05:15.806Z,4.95
2018-03-16T21:07:47.067Z,4.78
2018-03-16T21:10:19.104Z,4.80
2018-03-16T21:12:52.074Z,4.79
2018-03-16T21:15:24.314Z,4.88
2018-03-16T21:17:56.157Z,4.89
2018-03-16T21:20:28.014Z,4.93
2018-03-16T21:22:58.751Z,4.87
2018-03-16T21:25:29.793Z,4.82
2018-03-16T21:28:02.856Z,4.83
2018-03-16T21:30:34.543Z,4.85
2018-03-16T21:33:08.997Z,4.83
2018-03-16T21:35:40.993Z,4.67
2018-03-16T21:38:12.475Z,4.71
2018-03-16T21:40:44.847Z,4.52
2018-03-16T21:43:16.668Z,4.59
2018-03-16T21:45:48.327Z,4.68
2018-03-16T21:48:19.519Z,4.77
2018-03-16T21:50:53.581Z,4.82
2018-03-16T21:53:28.930Z,4.76
2018-03-16T21:56:01.665Z,4.81
2018-03-16T21:58:33.781Z,4.77
2018-03-16T22:01:05.054Z,4.68
2018-03-16T22:03:37.288Z,4.54
2018-03-16T22:06:09.520Z,4.58
2018-03-16T22:08:47.659Z,4.61
2018-03-16T22:11:20.057Z,4.70
2018-03-16T22:13:50.834Z,4.66
2018-03-16T22:16:21.679Z,4.78
2018-03-16T22:18:52.730Z,4.69
2018-03-16T22:21:26.177Z,4.60
2018-03-16T22:23:58.285Z,4.63
2018-03-16T22:26:31.257Z,4.58
2018-03-16T22:29:03.194Z,4.63
2018-03-16T22:31:40.080Z,4.62
2018-03-16T22:34:12.437Z,4.58
2018-03-16T22:36:45.289Z,4.65
2018-03-16T22:39:16.110Z,4.72
2018-03-16T22:41:48.683Z,4.77
2018-03-16T22:44:21.434Z,4.77
2018-03-16T22:46:52.985Z,4.85
2018-03-16T22:49:24.919Z,4.82
2018-03-16T22:51:56.308Z,4.67
2018-03-16T22:54:29.490Z,4.78
2018-03-16T22:57:01.235Z,4.67
2018-03-16T22:59:33.157Z,4.65
2018-03-16T23:02:08.000Z,4.70
2018-03-16T23:04:39.727Z,4.47
2018-03-16T23:07:11.836Z,4.77
2018-03-16T23:09:42.998Z,4.65
2018-03-16T23:12:14.577Z,4.62
2018-03-16T23:14:45.646Z,4.65
2018-03-16T23:17:16.890Z,4.77
2018-03-16T23:19:48.362Z,4.90
2018-03-16T23:22:20.085Z,4.84
2018-03-16T23:24:51.684Z,4.72
2018-03-16T23:27:23.793Z,4.62
2018-03-16T23:29:55.056Z,4.57
2018-03-16T23:32:27.319Z,4.56
2018-03-16T23:34:58.682Z,4.62
2018-03-16T23:37:31.397Z,4.56
2018-03-16T23:40:02.775Z,4.64
2018-03-16T23:42:34.106Z,4.71
2018-03-16T23:45:09.122Z,4.53
2018-03-16T23:47:42.644Z,4.36
2018-03-16T23:50:14.759Z,4.43
2018-03-16T23:52:46.942Z,4.33
2018-03-16T23:55:18.612Z,4.40
2018-03-16T23:57:50.929Z,4.32
